AFL200 ULLI-UUEE
Flight info
| Callsign | AFL200 |
|---|---|
| Flight time | N/A |
| Altitude | 35000 |
| Route | SUGIN1A SUGIN T873 NIRGI T73 NAMIN NAMIN3F |
| Aircraft | A321/M-SDE3FGHIRWY/LB1 |
Departure
| Time | N/A |
|---|---|
| Airport | Pulkovo Airport (ULLI) |
Arrival
| Time | 2026-04-30 19:46 |
|---|---|
| Airport | Sheremetyevo International Airport (UUEE) |
| Time | Latitude | Longitude | Altitude | Speed | Heading |
|---|---|---|---|---|---|
| 2026-04-30 18:56 | 59.43534 | 31.24830 | 22516 ft | 430 kts | 106° |
| 2026-04-30 18:56 | 59.42242 | 31.30154 | 22963 ft | 433 kts | 106° |
| 2026-04-30 18:56 | 59.40940 | 31.35504 | 23417 ft | 436 kts | 106° |
| 2026-04-30 18:57 | 59.38303 | 31.46293 | 24209 ft | 441 kts | 105° |
| 2026-04-30 18:57 | 59.36973 | 31.51725 | 24575 ft | 443 kts | 105° |
| 2026-04-30 18:57 | 59.35633 | 31.57180 | 24936 ft | 445 kts | 105° |
| 2026-04-30 18:58 | 59.32932 | 31.68144 | 25674 ft | 449 kts | 105° |
| 2026-04-30 18:58 | 59.31573 | 31.73652 | 26028 ft | 451 kts | 105° |
| 2026-04-30 18:58 | 59.30203 | 31.79190 | 26371 ft | 453 kts | 105° |
| 2026-04-30 18:59 | 59.27439 | 31.90319 | 27051 ft | 457 kts | 105° |
| 2026-04-30 19:00 | 59.23222 | 32.07169 | 28020 ft | 463 kts | 106° |
| 2026-04-30 19:00 | 59.21790 | 32.12828 | 28331 ft | 466 kts | 106° |
| 2026-04-30 19:00 | 59.18907 | 32.24204 | 28965 ft | 470 kts | 107° |
| 2026-04-30 19:01 | 59.16004 | 32.35645 | 29674 ft | 471 kts | 107° |
| 2026-04-30 19:01 | 59.14548 | 32.41353 | 30104 ft | 470 kts | 107° |
| 2026-04-30 19:02 | 59.11637 | 32.52716 | 30789 ft | 469 kts | 107° |
| 2026-04-30 19:02 | 59.08737 | 32.63994 | 31399 ft | 469 kts | 107° |
| 2026-04-30 19:03 | 59.05803 | 32.75324 | 32013 ft | 470 kts | 108° |
| 2026-04-30 19:03 | 59.02853 | 32.86655 | 32624 ft | 470 kts | 108° |
| 2026-04-30 19:04 | 58.99898 | 32.97973 | 33208 ft | 470 kts | 108° |
| 2026-04-30 19:04 | 58.96941 | 33.09289 | 33780 ft | 471 kts | 109° |
| 2026-04-30 19:05 | 58.93955 | 33.20591 | 34292 ft | 471 kts | 109° |
| 2026-04-30 19:05 | 58.90274 | 33.31268 | 34753 ft | 486 kts | 126° |
| 2026-04-30 19:06 | 58.85392 | 33.40445 | 35135 ft | 491 kts | 130° |
| 2026-04-30 19:06 | 58.78034 | 33.54028 | 35181 ft | 486 kts | 130° |
| 2026-04-30 19:07 | 58.70715 | 33.67533 | 35181 ft | 486 kts | 130° |
| 2026-04-30 19:08 | 58.65765 | 33.76602 | 35183 ft | 497 kts | 131° |
| 2026-04-30 19:08 | 58.60708 | 33.85813 | 35185 ft | 503 kts | 131° |
| 2026-04-30 19:09 | 58.53073 | 33.99604 | 35187 ft | 503 kts | 131° |
| 2026-04-30 19:09 | 58.47975 | 34.08778 | 35189 ft | 502 kts | 131° |
| 2026-04-30 19:10 | 58.37782 | 34.27020 | 35202 ft | 502 kts | 132° |
| 2026-04-30 19:11 | 58.30118 | 34.40634 | 35210 ft | 502 kts | 132° |
| 2026-04-30 19:12 | 58.25014 | 34.49686 | 35214 ft | 502 kts | 132° |
| 2026-04-30 19:12 | 58.19890 | 34.58697 | 35219 ft | 502 kts | 133° |
| 2026-04-30 19:13 | 58.09188 | 34.75696 | 35226 ft | 504 kts | 136° |
| 2026-04-30 19:14 | 58.03756 | 34.84079 | 35230 ft | 504 kts | 136° |
| 2026-04-30 19:14 | 57.98364 | 34.92529 | 35230 ft | 503 kts | 136° |
| 2026-04-30 19:15 | 57.92985 | 35.00994 | 35231 ft | 502 kts | 136° |
| 2026-04-30 19:15 | 57.84944 | 35.13521 | 35235 ft | 501 kts | 136° |
| 2026-04-30 19:16 | 57.82282 | 35.17643 | 35213 ft | 489 kts | 136° |
| 2026-04-30 19:16 | 57.79668 | 35.21672 | 35170 ft | 484 kts | 136° |
| 2026-04-30 19:16 | 57.74471 | 35.29670 | 34710 ft | 481 kts | 136° |
| 2026-04-30 19:17 | 57.71880 | 35.33650 | 34484 ft | 481 kts | 136° |
| 2026-04-30 19:17 | 57.66727 | 35.41553 | 34007 ft | 481 kts | 136° |
| 2026-04-30 19:17 | 57.64130 | 35.45527 | 33737 ft | 481 kts | 136° |
| 2026-04-30 19:18 | 57.60657 | 35.50827 | 33368 ft | 481 kts | 136° |
| 2026-04-30 19:18 | 57.57221 | 35.56064 | 33035 ft | 481 kts | 136° |
| 2026-04-30 19:18 | 57.54620 | 35.60026 | 32774 ft | 481 kts | 136° |
| 2026-04-30 19:19 | 57.51180 | 35.65258 | 32435 ft | 482 kts | 136° |
| 2026-04-30 19:19 | 57.49425 | 35.67924 | 32261 ft | 482 kts | 136° |
| 2026-04-30 19:19 | 57.44241 | 35.75778 | 31110 ft | 487 kts | 136° |
| 2026-04-30 19:20 | 57.41601 | 35.79776 | 30302 ft | 490 kts | 136° |
| 2026-04-30 19:20 | 57.38957 | 35.83768 | 29717 ft | 485 kts | 136° |
| 2026-04-30 19:20 | 57.33775 | 35.91537 | 28538 ft | 476 kts | 137° |
| 2026-04-30 19:21 | 57.31210 | 35.95364 | 27965 ft | 471 kts | 137° |
| 2026-04-30 19:21 | 57.26131 | 36.02940 | 26831 ft | 463 kts | 137° |
| 2026-04-30 19:22 | 57.21188 | 36.10319 | 25733 ft | 455 kts | 137° |
| 2026-04-30 19:22 | 57.13876 | 36.21181 | 24136 ft | 444 kts | 137° |
| 2026-04-30 19:23 | 57.06753 | 36.31680 | 22625 ft | 427 kts | 137° |
| 2026-04-30 19:24 | 57.02213 | 36.38335 | 21762 ft | 413 kts | 138° |
| 2026-04-30 19:24 | 56.99973 | 36.41591 | 21331 ft | 406 kts | 138° |
| 2026-04-30 19:24 | 56.95589 | 36.47899 | 20499 ft | 395 kts | 139° |
| 2026-04-30 19:25 | 56.89217 | 36.57037 | 19267 ft | 381 kts | 139° |
| 2026-04-30 19:26 | 56.85120 | 36.62948 | 18427 ft | 374 kts | 139° |
| 2026-04-30 19:26 | 56.81085 | 36.68795 | 17548 ft | 366 kts | 139° |
| 2026-04-30 19:26 | 56.79094 | 36.71671 | 17126 ft | 362 kts | 139° |
| 2026-04-30 19:27 | 56.75182 | 36.77312 | 16355 ft | 352 kts | 137° |
| 2026-04-30 19:27 | 56.72241 | 36.84106 | 16214 ft | 339 kts | 113° |
| 2026-04-30 19:28 | 56.71412 | 36.88029 | 16217 ft | 335 kts | 102° |
| 2026-04-30 19:28 | 56.70745 | 36.94999 | 16213 ft | 333 kts | 96° |
| 2026-04-30 19:29 | 56.69830 | 37.05661 | 16214 ft | 333 kts | 96° |
| 2026-04-30 19:29 | 56.69471 | 37.09831 | 16214 ft | 333 kts | 96° |
| 2026-04-30 19:30 | 56.68360 | 37.22344 | 16208 ft | 334 kts | 100° |
| 2026-04-30 19:30 | 56.65901 | 37.29460 | 16161 ft | 341 kts | 141° |
| 2026-04-30 19:31 | 56.62247 | 37.31851 | 15451 ft | 340 kts | 179° |
| 2026-04-30 19:31 | 56.59112 | 37.31638 | 14889 ft | 338 kts | 182° |
| 2026-04-30 19:31 | 56.55214 | 37.31327 | 14250 ft | 334 kts | 182° |
| 2026-04-30 19:32 | 56.52896 | 37.31153 | 13864 ft | 332 kts | 182° |
| 2026-04-30 19:32 | 56.50599 | 37.30988 | 13446 ft | 329 kts | 182° |
| 2026-04-30 19:32 | 56.48316 | 37.30829 | 13036 ft | 327 kts | 182° |
| 2026-04-30 19:32 | 56.46052 | 37.30674 | 12628 ft | 324 kts | 182° |
| 2026-04-30 19:33 | 56.43799 | 37.30522 | 12215 ft | 322 kts | 182° |
| 2026-04-30 19:33 | 56.41571 | 37.30365 | 11818 ft | 320 kts | 182° |
| 2026-04-30 19:33 | 56.39353 | 37.30205 | 11420 ft | 317 kts | 182° |
| 2026-04-30 19:33 | 56.37180 | 37.30049 | 11077 ft | 314 kts | 182° |
| 2026-04-30 19:34 | 56.35037 | 37.29891 | 10927 ft | 303 kts | 182° |
| 2026-04-30 19:34 | 56.32961 | 37.29738 | 10764 ft | 294 kts | 182° |
| 2026-04-30 19:34 | 56.28963 | 37.29462 | 10391 ft | 278 kts | 182° |
| 2026-04-30 19:35 | 56.27064 | 37.29330 | 10194 ft | 269 kts | 182° |
| 2026-04-30 19:35 | 56.25204 | 37.29378 | 9883 ft | 266 kts | 172° |
| 2026-04-30 19:35 | 56.23409 | 37.30088 | 9514 ft | 264 kts | 163° |
| 2026-04-30 19:35 | 56.21647 | 37.30977 | 9136 ft | 262 kts | 164° |
| 2026-04-30 19:36 | 56.19970 | 37.32194 | 8766 ft | 259 kts | 144° |
| 2026-04-30 19:36 | 56.18712 | 37.34459 | 8389 ft | 255 kts | 120° |
| 2026-04-30 19:36 | 56.17895 | 37.40296 | 8024 ft | 234 kts | 101° |
| 2026-04-30 19:37 | 56.17388 | 37.43051 | 7706 ft | 232 kts | 110° |
| 2026-04-30 19:37 | 56.16750 | 37.45703 | 7358 ft | 231 kts | 112° |
| 2026-04-30 19:37 | 56.16092 | 37.48322 | 7009 ft | 230 kts | 112° |
| 2026-04-30 19:37 | 56.15449 | 37.50920 | 6549 ft | 227 kts | 111° |
| 2026-04-30 19:38 | 56.14824 | 37.53515 | 5953 ft | 226 kts | 111° |
| 2026-04-30 19:38 | 56.14220 | 37.56099 | 5385 ft | 224 kts | 111° |
| 2026-04-30 19:38 | 56.13628 | 37.58674 | 4816 ft | 222 kts | 111° |
| 2026-04-30 19:38 | 56.13044 | 37.61251 | 4366 ft | 223 kts | 111° |
| 2026-04-30 19:39 | 56.12467 | 37.63808 | 4016 ft | 219 kts | 111° |
| 2026-04-30 19:39 | 56.11915 | 37.66258 | 4015 ft | 206 kts | 111° |
| 2026-04-30 19:39 | 56.11384 | 37.68615 | 4017 ft | 202 kts | 111° |
| 2026-04-30 19:39 | 56.10869 | 37.70911 | 4026 ft | 199 kts | 111° |
| 2026-04-30 19:40 | 56.10351 | 37.73225 | 4007 ft | 198 kts | 111° |
| 2026-04-30 19:40 | 56.09740 | 37.75344 | 3703 ft | 189 kts | 129° |
| 2026-04-30 19:40 | 56.08673 | 37.76634 | 3257 ft | 184 kts | 160° |
| 2026-04-30 19:40 | 56.07441 | 37.76730 | 2971 ft | 173 kts | 193° |
| 2026-04-30 19:41 | 56.06410 | 37.75792 | 2877 ft | 162 kts | 224° |
| 2026-04-30 19:41 | 56.05644 | 37.74329 | 2493 ft | 160 kts | 229° |
| 2026-04-30 19:41 | 56.04890 | 37.72851 | 2511 ft | 162 kts | 229° |
| 2026-04-30 19:41 | 56.04136 | 37.71368 | 2510 ft | 163 kts | 229° |
| 2026-04-30 19:42 | 56.03371 | 37.69865 | 2510 ft | 163 kts | 229° |
| 2026-04-30 19:42 | 56.02606 | 37.68365 | 2509 ft | 163 kts | 229° |
| 2026-04-30 19:42 | 56.01841 | 37.66867 | 2510 ft | 163 kts | 229° |
| 2026-04-30 19:42 | 56.01074 | 37.65366 | 2510 ft | 163 kts | 229° |
| 2026-04-30 19:43 | 56.00464 | 37.63674 | 2509 ft | 162 kts | 249° |
| 2026-04-30 19:43 | 56.00145 | 37.61752 | 2512 ft | 161 kts | 256° |
| 2026-04-30 19:43 | 55.99854 | 37.59813 | 2446 ft | 161 kts | 256° |
| 2026-04-30 19:44 | 55.99290 | 37.55978 | 2005 ft | 160 kts | 257° |
| 2026-04-30 19:44 | 55.99013 | 37.54058 | 1765 ft | 159 kts | 256° |
| 2026-04-30 19:44 | 55.98729 | 37.52148 | 1508 ft | 158 kts | 256° |
| 2026-04-30 19:44 | 55.98444 | 37.50249 | 1304 ft | 157 kts | 256° |
| 2026-04-30 19:45 | 55.98172 | 37.48357 | 1124 ft | 156 kts | 256° |
| 2026-04-30 19:45 | 55.97891 | 37.46485 | 949 ft | 156 kts | 255° |
| 2026-04-30 19:45 | 55.97605 | 37.44620 | 730 ft | 155 kts | 255° |
| 2026-04-30 19:45 | 55.97329 | 37.42823 | 643 ft | 143 kts | 255° |
| 2026-04-30 19:46 | 55.97153 | 37.41588 | 641 ft | 35 kts | 256° |
| 2026-04-30 19:46 | 55.97168 | 37.41358 | 641 ft | 0 kts | 327° |
| 2026-04-30 19:46 | 55.97192 | 37.41335 | 639 ft | 9 kts | 336° |
| 2026-04-30 19:46 | 55.97234 | 37.41311 | 639 ft | 0 kts | 344° |
| 2026-04-30 19:47 | 55.97264 | 37.41297 | 646 ft | 11 kts | 345° |
| 2026-04-30 19:47 | 55.97315 | 37.41272 | 640 ft | 11 kts | 345° |
| 2026-04-30 19:47 | 55.97405 | 37.41228 | 642 ft | 10 kts | 345° |
| 2026-04-30 19:47 | 55.97473 | 37.41199 | 642 ft | 10 kts | 347° |
| 2026-04-30 19:48 | 55.97534 | 37.41213 | 639 ft | 8 kts | 48° |
| 2026-04-30 19:48 | 55.97543 | 37.41245 | 645 ft | 8 kts | 70° |
| 2026-04-30 19:48 | 55.97552 | 37.41303 | 643 ft | 12 kts | 75° |
| 2026-04-30 19:48 | 55.97574 | 37.41443 | 641 ft | 10 kts | 75° |
| 2026-04-30 19:49 | 55.97581 | 37.41494 | 640 ft | 1 kts | 76° |
| 2026-04-30 19:49 | 55.97587 | 37.41536 | 641 ft | 7 kts | 76° |
| 2026-04-30 19:49 | 55.97623 | 37.41602 | 639 ft | 11 kts | 3° |
| 2026-04-30 19:50 | 55.97692 | 37.41647 | 643 ft | 11 kts | 68° |
| 2026-04-30 19:50 | 55.97716 | 37.41774 | 644 ft | 10 kts | 76° |
| 2026-04-30 19:50 | 55.97755 | 37.41834 | 641 ft | 7 kts | 354° |
| 2026-04-30 19:50 | 55.97795 | 37.41814 | 645 ft | 3 kts | 345° |
| 2026-04-30 19:51 | 55.97798 | 37.41812 | 644 ft | 0 kts | 345° |